createdAt,value
2022-12-06T00:00:01.899Z,1016.751
2022-12-06T00:07:01.792Z,1016.728
2022-12-06T00:14:01.568Z,1016.728
2022-12-06T00:21:01.996Z,1016.752
2022-12-06T00:28:01.935Z,1016.752
2022-12-06T00:35:01.628Z,1016.714
2022-12-06T00:42:01.815Z,1016.714
2022-12-06T00:49:01.826Z,1016.615
2022-12-06T00:56:01.403Z,1016.615
2022-12-06T01:00:02.421Z,1016.664
2022-12-06T01:07:01.982Z,1016.664
2022-12-06T01:14:01.485Z,1016.546
2022-12-06T01:21:01.290Z,1016.546
2022-12-06T01:28:01.565Z,1016.645
2022-12-06T01:35:02.202Z,1016.645
2022-12-06T01:42:02.154Z,1016.614
2022-12-06T01:49:01.933Z,1016.561
2022-12-06T01:56:01.768Z,1016.561
2022-12-06T02:00:02.651Z,1016.561
2022-12-06T02:07:02.124Z,1016.637
2022-12-06T02:14:02.298Z,1016.637
2022-12-06T02:21:01.402Z,1016.529
2022-12-06T02:28:02.065Z,1016.483
2022-12-06T02:35:01.523Z,1016.483
2022-12-06T02:42:01.383Z,1016.418
2022-12-06T02:49:02.285Z,1016.418
2022-12-06T02:56:01.570Z,1016.338
2022-12-06T03:00:02.361Z,1016.338
2022-12-06T03:07:01.764Z,1016.423
2022-12-06T03:14:01.952Z,1016.423
2022-12-06T03:21:01.868Z,1016.335
2022-12-06T03:28:02.258Z,1016.335
2022-12-06T03:35:01.893Z,1016.297
2022-12-06T03:42:01.692Z,1016.297
2022-12-06T03:49:02.203Z,1016.112
2022-12-06T03:56:02.303Z,1016.112
2022-12-06T04:00:02.160Z,1016.195
2022-12-06T04:07:01.986Z,1016.195
2022-12-06T04:14:01.598Z,1016.233
2022-12-06T04:21:01.308Z,1016.233
2022-12-06T04:28:01.924Z,1016.199
2022-12-06T04:35:01.544Z,1016.199
2022-12-06T04:42:02.230Z,1016.137
2022-12-06T04:49:01.572Z,1016.236
2022-12-06T04:56:02.080Z,1016.236
2022-12-06T05:00:01.756Z,1016.236
2022-12-06T05:07:01.589Z,1016.014
2022-12-06T05:14:01.822Z,1016.193
2022-12-06T05:21:01.375Z,1016.193
2022-12-06T05:28:01.509Z,1016.158
2022-12-06T05:35:01.478Z,1016.158
2022-12-06T05:42:01.917Z,1016.089
2022-12-06T05:49:02.286Z,1016.089
2022-12-06T05:56:02.086Z,1016.089
2022-12-06T06:00:01.972Z,1016.089
2022-12-06T06:07:01.408Z,1016.177
2022-12-06T06:14:01.505Z,1016.177
2022-12-06T06:21:01.472Z,1016.13
2022-12-06T06:28:01.749Z,1016.13
2022-12-06T06:35:02.432Z,1016.259
2022-12-06T06:42:02.031Z,1016.259
2022-12-06T06:49:02.205Z,1016.135
2022-12-06T06:56:01.771Z,1016.135
2022-12-06T07:00:02.627Z,1016.128
2022-12-06T07:07:02.115Z,1016.128
2022-12-06T07:14:02.028Z,1016.141
2022-12-06T07:21:01.613Z,1016.141
2022-12-06T07:28:01.953Z,1016.101
2022-12-06T07:35:01.654Z,1016.101
2022-12-06T07:42:01.498Z,1016.172
2022-12-06T07:49:01.488Z,1016.221
2022-12-06T07:56:01.755Z,1016.221
2022-12-06T08:00:02.627Z,1016.221
2022-12-06T08:07:02.108Z,1016.224
2022-12-06T08:14:01.772Z,1016.362
2022-12-06T08:21:02.226Z,1016.362
2022-12-06T08:28:01.668Z,1016.452
2022-12-06T08:35:01.878Z,1016.452
2022-12-06T08:42:01.487Z,1016.433
2022-12-06T08:49:01.928Z,1016.433
2022-12-06T08:56:02.874Z,1016.449
2022-12-06T09:00:02.190Z,1016.449
2022-12-06T09:07:02.012Z,1016.514
2022-12-06T09:14:01.669Z,1016.514
2022-12-06T09:21:01.451Z,1016.572
2022-12-06T09:28:01.644Z,1016.572
2022-12-06T09:35:02.103Z,1016.657
2022-12-06T09:42:01.506Z,1016.657
2022-12-06T09:49:02.019Z,1016.713
2022-12-06T09:56:01.674Z,1016.713
2022-12-06T10:00:02.708Z,1016.772
2022-12-06T10:07:01.795Z,1016.772
2022-12-06T10:14:01.728Z,1016.681
2022-12-06T10:21:01.947Z,1016.681
2022-12-06T10:28:01.971Z,1016.619
2022-12-06T10:35:02.082Z,1016.619
2022-12-06T10:42:01.964Z,1016.539
2022-12-06T10:49:01.549Z,1016.372
2022-12-06T10:56:01.378Z,1016.372
2022-12-06T11:00:03.961Z,1016.372
2022-12-06T11:07:01.710Z,1016.357
2022-12-06T11:14:02.281Z,1016.244
2022-12-06T11:21:01.388Z,1016.244
2022-12-06T11:28:01.393Z,1016.163
2022-12-06T11:35:02.202Z,1016.163
2022-12-06T11:42:01.455Z,1016.125
2022-12-06T11:49:01.614Z,1016.125
2022-12-06T11:56:01.949Z,1016.233
2022-12-06T12:00:02.630Z,1016.233
2022-12-06T12:07:02.106Z,1016.103
2022-12-06T12:14:02.279Z,1016.103
2022-12-06T12:21:01.657Z,1016.05
2022-12-06T12:28:01.707Z,1016.05
2022-12-06T12:35:02.490Z,1015.907
2022-12-06T12:42:01.783Z,1015.907
2022-12-06T12:49:01.956Z,1015.938
2022-12-06T12:56:01.605Z,1015.938
2022-12-06T13:00:02.295Z,1015.914
2022-12-06T13:07:01.740Z,1015.914
2022-12-06T13:14:02.016Z,1015.942
2022-12-06T13:21:01.631Z,1015.942
2022-12-06T13:28:05.406Z,1015.827
2022-12-06T13:35:02.897Z,1015.827
2022-12-06T13:42:02.189Z,1015.759
2022-12-06T13:49:02.157Z,1015.809
2022-12-06T13:56:01.874Z,1015.809
2022-12-06T14:00:02.615Z,1015.809
2022-12-06T14:07:01.552Z,1015.793
2022-12-06T14:14:01.483Z,1015.87
2022-12-06T14:21:01.591Z,1015.87
2022-12-06T14:28:02.060Z,1015.802
2022-12-06T14:35:02.520Z,1015.802
2022-12-06T14:42:01.401Z,1015.721
2022-12-06T14:49:01.845Z,1015.721
2022-12-06T14:56:01.600Z,1015.758
2022-12-06T15:00:20.775Z,1015.758
2022-12-06T15:07:01.417Z,1015.759
2022-12-06T15:14:02.083Z,1015.759
2022-12-06T15:21:01.486Z,1015.681
2022-12-06T15:28:01.311Z,1015.681
2022-12-06T15:35:02.029Z,1015.696
2022-12-06T15:42:01.512Z,1015.696
2022-12-06T15:49:01.541Z,1015.74
2022-12-06T15:56:01.934Z,1015.74
2022-12-06T16:00:02.644Z,1015.571
2022-12-06T16:07:01.611Z,1015.571
2022-12-06T16:14:01.381Z,1015.517
2022-12-06T16:21:01.864Z,1015.517
2022-12-06T16:28:01.848Z,1015.531
2022-12-06T16:35:02.650Z,1015.531
2022-12-06T16:42:01.484Z,1015.667
2022-12-06T16:49:15.764Z,1015.542
2022-12-06T16:56:01.321Z,1015.542
2022-12-06T17:00:01.838Z,1015.542
2022-12-06T17:07:02.178Z,1015.519
2022-12-06T17:14:01.835Z,1015.318
2022-12-06T17:21:01.431Z,1015.318
2022-12-06T17:28:01.936Z,1015.31
2022-12-06T17:35:02.438Z,1015.31
2022-12-06T17:42:02.162Z,1015.331
2022-12-06T17:49:02.150Z,1015.331
2022-12-06T17:56:01.333Z,1015.208
2022-12-06T18:00:01.838Z,1015.208
2022-12-06T18:07:01.390Z,1015.361
2022-12-06T18:14:02.206Z,1015.361
2022-12-06T18:21:01.464Z,1015.336
2022-12-06T18:28:01.324Z,1015.336
2022-12-06T18:35:02.710Z,1015.286
2022-12-06T18:42:01.537Z,1015.286
2022-12-06T18:49:02.247Z,1015.178
2022-12-06T18:56:01.713Z,1015.178
2022-12-06T19:00:02.698Z,1015.192
2022-12-06T19:07:02.322Z,1015.192
2022-12-06T19:14:01.877Z,1015.185
2022-12-06T19:21:01.702Z,1015.185
2022-12-06T19:28:02.658Z,1015.113
2022-12-06T19:35:07.952Z,1015.113
2022-12-06T19:42:01.605Z,1015.079
2022-12-06T19:49:02.257Z,1015.155
2022-12-06T19:56:02.105Z,1015.155
2022-12-06T20:00:01.873Z,1015.155
2022-12-06T20:07:02.199Z,1015.048
2022-12-06T20:14:01.446Z,1015.018
2022-12-06T20:21:01.562Z,1015.018
2022-12-06T20:28:02.243Z,1014.917
2022-12-06T20:35:02.407Z,1014.917
2022-12-06T20:42:01.724Z,1014.936
2022-12-06T20:49:01.336Z,1014.936
2022-12-06T20:56:02.173Z,1014.912
2022-12-06T21:00:07.109Z,1014.912
2022-12-06T21:07:02.226Z,1014.791
2022-12-06T21:14:01.878Z,1014.791
2022-12-06T21:21:01.867Z,1014.731
2022-12-06T21:28:02.013Z,1014.731
2022-12-06T21:35:01.724Z,1014.635
2022-12-06T21:42:01.494Z,1014.635
2022-12-06T21:49:01.812Z,1014.681
2022-12-06T21:56:02.027Z,1014.681
2022-12-06T22:00:02.081Z,1014.77
2022-12-06T22:07:01.376Z,1014.77
2022-12-06T22:14:01.925Z,1014.724
2022-12-06T22:21:01.421Z,1014.724
2022-12-06T22:28:01.849Z,1014.712
2022-12-06T22:35:01.720Z,1014.783
2022-12-06T22:42:01.970Z,1014.783
2022-12-06T22:49:01.500Z,1014.723
2022-12-06T22:56:01.658Z,1014.723
2022-12-06T23:00:02.479Z,1014.723
2022-12-06T23:07:01.963Z,1014.725
2022-12-06T23:14:01.702Z,1014.647
2022-12-06T23:21:02.110Z,1014.647
2022-12-06T23:28:01.627Z,1014.624
2022-12-06T23:35:02.124Z,1014.624
2022-12-06T23:42:01.830Z,1014.55
2022-12-06T23:49:02.206Z,1014.55
2022-12-06T23:56:01.865Z,1014.34
